createdAt,value
2019-04-19T00:01:14.000Z,101415
2019-04-19T00:03:20.000Z,101415
2019-04-19T00:05:10.000Z,101420
2019-04-19T00:06:10.000Z,101412
2019-04-19T00:07:19.000Z,101411
2019-04-19T00:09:25.000Z,101415
2019-04-19T00:11:23.000Z,101411
2019-04-19T00:12:25.000Z,101412
2019-04-19T00:14:25.000Z,101412
2019-04-19T00:16:25.000Z,101410
2019-04-19T00:18:15.000Z,101409
2019-04-19T00:20:25.000Z,101418
2019-04-19T00:23:25.000Z,101408
2019-04-19T00:25:26.000Z,101413
2019-04-19T00:27:11.000Z,101413
2019-04-19T00:29:20.000Z,101416
2019-04-19T00:30:25.000Z,101419
2019-04-19T00:32:25.000Z,101417
2019-04-19T00:34:25.000Z,101417
2019-04-19T00:36:13.000Z,101422
2019-04-19T00:38:10.000Z,101422
2019-04-19T00:39:25.000Z,101415
2019-04-19T00:41:25.000Z,101417
2019-04-19T00:43:25.000Z,101417
2019-04-19T00:45:25.000Z,101418
2019-04-19T00:47:10.000Z,101415
2019-04-19T00:48:25.000Z,101418
2019-04-19T00:50:10.000Z,101417
2019-04-19T00:51:23.000Z,101411
2019-04-19T00:52:25.000Z,101419
2019-04-19T00:54:21.000Z,101422
2019-04-19T00:56:10.000Z,101416
2019-04-19T00:57:21.000Z,101414
2019-04-19T00:59:10.000Z,101413
2019-04-19T01:00:20.000Z,101417
2019-04-19T01:02:16.000Z,101416
2019-04-19T01:04:10.000Z,101412
2019-04-19T01:05:16.000Z,101411
2019-04-19T01:06:16.000Z,101409
2019-04-19T01:07:20.000Z,101415
2019-04-19T01:09:25.000Z,101407
2019-04-19T01:10:25.000Z,101413
2019-04-19T01:12:24.000Z,101413
2019-04-19T01:15:11.000Z,101415
2019-04-19T01:16:24.000Z,101415
2019-04-19T01:18:11.000Z,101413
2019-04-19T01:19:15.000Z,101412
2019-04-19T01:21:11.000Z,101420
2019-04-19T01:22:11.000Z,101418
2019-04-19T01:23:15.000Z,101417
2019-04-19T01:25:11.000Z,101422
2019-04-19T01:26:15.000Z,101417
2019-04-19T01:27:18.000Z,101418
2019-04-19T01:29:11.000Z,101414
2019-04-19T01:30:26.000Z,101416
2019-04-19T01:32:11.000Z,101409
2019-04-19T01:33:26.000Z,101415
2019-04-19T01:35:11.000Z,101421
2019-04-19T01:36:26.000Z,101420
2019-04-19T01:38:11.000Z,101423
2019-04-19T01:41:25.000Z,101422
2019-04-19T01:42:25.000Z,101426
2019-04-19T01:44:25.000Z,101421
2019-04-19T01:46:25.000Z,101421
2019-04-19T01:47:25.000Z,101423
2019-04-19T01:48:25.000Z,101426
2019-04-19T01:50:11.000Z,101429
2019-04-19T01:51:12.000Z,101426
2019-04-19T01:52:25.000Z,101425
2019-04-19T01:54:25.000Z,101421
2019-04-19T01:56:11.000Z,101427
2019-04-19T01:58:16.000Z,101430
2019-04-19T02:00:11.000Z,101428
2019-04-19T02:01:17.000Z,101430
2019-04-19T02:03:12.000Z,101425
2019-04-19T02:05:16.000Z,101428
2019-04-19T02:07:10.000Z,101429
2019-04-19T02:08:14.000Z,101430
2019-04-19T02:10:11.000Z,101432
2019-04-19T02:11:25.000Z,101433
2019-04-19T02:13:22.000Z,101424
2019-04-19T02:15:15.000Z,101427
2019-04-19T02:16:19.000Z,101437
2019-04-19T02:18:11.000Z,101435
2019-04-19T02:19:18.000Z,101438
2019-04-19T02:21:10.000Z,101434
2019-04-19T02:22:19.000Z,101435
2019-04-19T02:24:25.000Z,101432
2019-04-19T02:26:11.000Z,101436
2019-04-19T02:27:14.000Z,101444
2019-04-19T02:28:20.000Z,101434
2019-04-19T02:30:11.000Z,101438
2019-04-19T02:31:25.000Z,101443
2019-04-19T02:33:25.000Z,101444
2019-04-19T02:35:20.000Z,101444
2019-04-19T02:40:25.000Z,101442
2019-04-19T02:44:15.000Z,101450
2019-04-19T02:45:25.000Z,101450
2019-04-19T02:48:25.000Z,101453
2019-04-19T02:49:26.000Z,101452
2019-04-19T02:57:08.000Z,101456
2019-04-19T02:59:24.000Z,101456
2019-04-19T03:00:24.000Z,101458
2019-04-19T03:02:24.000Z,101462
2019-04-19T03:04:08.000Z,101460
2019-04-19T03:05:24.000Z,101459
2019-04-19T03:07:12.000Z,101457
2019-04-19T03:08:42.000Z,101465
2019-04-19T03:10:12.000Z,101456
2019-04-19T03:11:27.000Z,101460
2019-04-19T03:13:26.000Z,101453
2019-04-19T03:14:27.000Z,101457
2019-04-19T03:18:27.000Z,101457
2019-04-19T03:19:27.000Z,101462
2019-04-19T03:20:27.000Z,101466
2019-04-19T03:22:27.000Z,101464
2019-04-19T03:23:27.000Z,101465
2019-04-19T03:25:12.000Z,101464
2019-04-19T03:26:27.000Z,101464
2019-04-19T03:28:12.000Z,101469
2019-04-19T03:29:22.000Z,101465
2019-04-19T03:31:27.000Z,101465
2019-04-19T03:33:27.000Z,101468
2019-04-19T03:35:24.000Z,101467
2019-04-19T03:37:25.000Z,101475
2019-04-19T03:38:27.000Z,101466
2019-04-19T03:40:27.000Z,101475
2019-04-19T03:45:27.000Z,101465
2019-04-19T03:47:27.000Z,101469
2019-04-19T03:50:27.000Z,101480
2019-04-19T03:52:27.000Z,101468
2019-04-19T03:53:27.000Z,101475
2019-04-19T03:55:27.000Z,101477
2019-04-19T03:56:27.000Z,101480
2019-04-19T03:58:19.000Z,101473
2019-04-19T03:59:27.000Z,101475
2019-04-19T04:01:12.000Z,101482
2019-04-19T04:02:22.000Z,101477
2019-04-19T04:04:12.000Z,101487
2019-04-19T04:05:17.000Z,101480
2019-04-19T04:06:21.000Z,101483
2019-04-19T04:08:12.000Z,101489
2019-04-19T04:09:28.000Z,101494
2019-04-19T04:11:19.000Z,101490
2019-04-19T04:12:27.000Z,101494
2019-04-19T04:14:12.000Z,101490
2019-04-19T04:15:25.000Z,101495
2019-04-19T04:17:27.000Z,101494
2019-04-19T04:19:42.000Z,101492
2019-04-19T04:21:12.000Z,101487
2019-04-19T04:22:18.000Z,101497
2019-04-19T04:23:21.000Z,101502
2019-04-19T04:24:22.000Z,101506
2019-04-19T04:26:12.000Z,101499
2019-04-19T04:27:27.000Z,101497
2019-04-19T04:28:27.000Z,101502
2019-04-19T04:30:12.000Z,101500
2019-04-19T04:31:24.000Z,101503
2019-04-19T04:32:27.000Z,101506
2019-04-19T04:34:12.000Z,101511
2019-04-19T04:35:27.000Z,101510
2019-04-19T04:37:27.000Z,101503
2019-04-19T04:39:13.000Z,101510
2019-04-19T04:40:27.000Z,101511
2019-04-19T04:42:12.000Z,101501
2019-04-19T04:43:27.000Z,101505
2019-04-19T04:45:12.000Z,101509
2019-04-19T04:46:27.000Z,101505
2019-04-19T04:49:27.000Z,101505
2019-04-19T04:51:27.000Z,101510
2019-04-19T04:53:12.000Z,101516
2019-04-19T04:54:42.000Z,101517
2019-04-19T04:56:12.000Z,101515
2019-04-19T04:57:17.000Z,101516
2019-04-19T04:58:22.000Z,101519
2019-04-19T05:00:12.000Z,101517
2019-04-19T05:01:27.000Z,101519
2019-04-19T05:02:27.000Z,101519
2019-04-19T05:03:27.000Z,101527
2019-04-19T05:06:27.000Z,101525
2019-04-19T05:08:27.000Z,101531
2019-04-19T05:09:27.000Z,101524
2019-04-19T05:12:27.000Z,101532
2019-04-19T05:14:27.000Z,101535
2019-04-19T05:17:27.000Z,101530
2019-04-19T05:19:27.000Z,101531
2019-04-19T05:21:27.000Z,101534
2019-04-19T05:22:27.000Z,101526
2019-04-19T05:24:27.000Z,101540
2019-04-19T05:26:27.000Z,101541
2019-04-19T05:28:42.000Z,101540
2019-04-19T05:30:12.000Z,101538
2019-04-19T05:31:24.000Z,101548
2019-04-19T05:33:12.000Z,101549
2019-04-19T05:34:27.000Z,101549
2019-04-19T05:36:27.000Z,101548
2019-04-19T05:37:27.000Z,101546
2019-04-19T05:38:27.000Z,101552
2019-04-19T05:40:27.000Z,101547
2019-04-19T05:41:27.000Z,101544
2019-04-19T05:43:27.000Z,101544
2019-04-19T05:45:27.000Z,101545
2019-04-19T05:46:27.000Z,101548
2019-04-19T05:57:10.000Z,101542
2019-04-19T05:58:22.000Z,101545
2019-04-19T05:59:23.000Z,101546
2019-04-19T06:00:26.000Z,101546
2019-04-19T06:01:26.000Z,101545
2019-04-19T06:04:26.000Z,101549
2019-04-19T06:06:26.000Z,101547
2019-04-19T06:08:21.000Z,101552
2019-04-19T06:10:13.000Z,101550
2019-04-19T06:11:20.000Z,101541
2019-04-19T06:13:15.000Z,101549
2019-04-19T06:14:26.000Z,101554
2019-04-19T06:16:26.000Z,101550
2019-04-19T06:17:26.000Z,101548
2019-04-19T06:19:11.000Z,101547
2019-04-19T06:20:26.000Z,101551
2019-04-19T06:22:26.000Z,101549
2019-04-19T06:24:26.000Z,101551
2019-04-19T06:25:26.000Z,101545
2019-04-19T06:27:11.000Z,101553
2019-04-19T06:28:12.000Z,101548
2019-04-19T06:29:26.000Z,101548
2019-04-19T06:30:26.000Z,101554
2019-04-19T06:31:26.000Z,101553
2019-04-19T06:33:19.000Z,101556
2019-04-19T06:34:26.000Z,101556
2019-04-19T06:36:14.000Z,101557
2019-04-19T06:38:26.000Z,101561
2019-04-19T06:40:21.000Z,101557
2019-04-19T06:42:11.000Z,101557
2019-04-19T06:43:20.000Z,101567
2019-04-19T06:44:26.000Z,101566
2019-04-19T06:46:26.000Z,101563
2019-04-19T06:48:18.000Z,101562
2019-04-19T06:49:20.000Z,101571
2019-04-19T06:50:20.000Z,101561
2019-04-19T06:51:23.000Z,101560
2019-04-19T06:53:11.000Z,101564
2019-04-19T06:54:13.000Z,101563
2019-04-19T06:55:20.000Z,101568
2019-04-19T06:56:21.000Z,101563
2019-04-19T06:58:20.000Z,101573
2019-04-19T06:59:24.000Z,101570
2019-04-19T07:00:25.000Z,101568
2019-04-19T07:01:25.000Z,101577
2019-04-19T07:03:11.000Z,101574
2019-04-19T07:04:26.000Z,101570
2019-04-19T07:06:25.000Z,101577
2019-04-19T07:07:26.000Z,101545
2019-04-19T07:09:26.000Z,101572
2019-04-19T07:11:26.000Z,101567
2019-04-19T07:13:25.000Z,101574
2019-04-19T07:15:26.000Z,101571
2019-04-19T07:17:26.000Z,101574
2019-04-19T07:18:26.000Z,101575
2019-04-19T07:20:26.000Z,101570
2019-04-19T07:22:26.000Z,101572
2019-04-19T07:23:26.000Z,101575
2019-04-19T07:25:25.000Z,101577
2019-04-19T07:26:26.000Z,101577
2019-04-19T07:28:19.000Z,101580
2019-04-19T07:29:27.000Z,101581
2019-04-19T07:31:11.000Z,101578
2019-04-19T07:32:27.000Z,101581
2019-04-19T07:34:26.000Z,101579
2019-04-19T07:35:26.000Z,101578
2019-04-19T07:38:26.000Z,101579
2019-04-19T07:40:25.000Z,101585
2019-04-19T07:42:25.000Z,101581
2019-04-19T07:43:25.000Z,101582
2019-04-19T07:44:25.000Z,101584
2019-04-19T07:46:10.000Z,101587
2019-04-19T07:47:25.000Z,101588
2019-04-19T07:49:10.000Z,101585
2019-04-19T07:50:19.000Z,101584
2019-04-19T07:51:19.000Z,101585
2019-04-19T07:52:20.000Z,101578
2019-04-19T07:54:10.000Z,101589
2019-04-19T07:55:13.000Z,101584
2019-04-19T07:56:25.000Z,101595
2019-04-19T07:58:10.000Z,101592
2019-04-19T08:02:26.000Z,101600
2019-04-19T08:06:27.000Z,101598
2019-04-19T08:08:27.000Z,101611
2019-04-19T08:37:18.000Z,101603
2019-04-19T08:38:23.000Z,101606
2019-04-19T08:39:33.000Z,101603
2019-04-19T08:41:33.000Z,101603
2019-04-19T08:43:33.000Z,101597
2019-04-19T08:44:33.000Z,101604
2019-04-19T08:46:18.000Z,101600
2019-04-19T08:47:31.000Z,101600
2019-04-19T08:49:28.000Z,101588
2019-04-19T08:51:18.000Z,101598
2019-04-19T08:52:25.000Z,101601
2019-04-19T08:53:33.000Z,101594
2019-04-19T08:55:33.000Z,101595
2019-04-19T08:57:18.000Z,101594
2019-04-19T08:59:33.000Z,101597
2019-04-19T09:01:33.000Z,101594
2019-04-19T09:02:33.000Z,101591
2019-04-19T09:04:33.000Z,101588
2019-04-19T09:05:33.000Z,101591
2019-04-19T09:07:18.000Z,101592
2019-04-19T09:08:22.000Z,101589
2019-04-19T09:09:30.000Z,101594
2019-04-19T09:10:33.000Z,101590
2019-04-19T09:12:33.000Z,101590
2019-04-19T09:14:33.000Z,101596
2019-04-19T09:15:33.000Z,101600
2019-04-19T09:17:33.000Z,101592
2019-04-19T09:19:33.000Z,101591
2019-04-19T09:21:24.000Z,101588
2019-04-19T09:22:33.000Z,101591
2019-04-19T09:26:33.000Z,101580
2019-04-19T09:27:33.000Z,101589
2019-04-19T09:29:33.000Z,101583
2019-04-19T09:31:33.000Z,101578
2019-04-19T09:33:18.000Z,101581
2019-04-19T09:34:21.000Z,101582
2019-04-19T09:36:18.000Z,101585
2019-04-19T09:37:33.000Z,101584
2019-04-19T09:38:33.000Z,101570
2019-04-19T09:39:33.000Z,101575
2019-04-19T09:41:30.000Z,101575
2019-04-19T09:42:31.000Z,101580
2019-04-19T09:43:33.000Z,101573
2019-04-19T09:45:33.000Z,101578
2019-04-19T09:47:33.000Z,101579
2019-04-19T09:49:33.000Z,101577
2019-04-19T09:50:33.000Z,101570
2019-04-19T09:52:33.000Z,101572
2019-04-19T09:53:33.000Z,101575
2019-04-19T09:55:21.000Z,101573
2019-04-19T09:57:33.000Z,101570
2019-04-19T09:59:27.000Z,101570
2019-04-19T10:01:18.000Z,101563
2019-04-19T10:02:29.000Z,101571
2019-04-19T10:03:31.000Z,101563
2019-04-19T10:05:18.000Z,101564
2019-04-19T10:06:33.000Z,101566
2019-04-19T10:08:18.000Z,101563
2019-04-19T10:09:22.000Z,101566
2019-04-19T10:11:18.000Z,101563
2019-04-19T10:12:18.000Z,101558
2019-04-19T10:13:34.000Z,101562
2019-04-19T10:15:33.000Z,101554
2019-04-19T10:17:33.000Z,101552
2019-04-19T10:19:33.000Z,101551
2019-04-19T10:20:48.000Z,101561
2019-04-19T10:22:33.000Z,101557
2019-04-19T10:24:18.000Z,101548
2019-04-19T10:25:34.000Z,101549
2019-04-19T10:26:35.000Z,101549
2019-04-19T10:28:18.000Z,101546
2019-04-19T10:29:27.000Z,101556
2019-04-19T10:31:18.000Z,101549
2019-04-19T10:32:33.000Z,101543
2019-04-19T10:34:33.000Z,101543
2019-04-19T10:36:48.000Z,101550
2019-04-19T10:38:18.000Z,101546
2019-04-19T10:39:34.000Z,101547
2019-04-19T10:41:34.000Z,101551
2019-04-19T10:43:18.000Z,101549
2019-04-19T10:44:18.000Z,101550
2019-04-19T10:45:33.000Z,101551
2019-04-19T10:47:33.000Z,101549
2019-04-19T10:49:30.000Z,101546
2019-04-19T10:50:32.000Z,101542
2019-04-19T10:52:18.000Z,101538
2019-04-19T10:53:21.000Z,101543
2019-04-19T10:54:48.000Z,101537
2019-04-19T10:56:33.000Z,101539
2019-04-19T10:58:18.000Z,101543
2019-04-19T10:59:33.000Z,101547
2019-04-19T11:01:18.000Z,101539
2019-04-19T11:02:18.000Z,101540
2019-04-19T11:03:34.000Z,101550
2019-04-19T11:05:18.000Z,101549
2019-04-19T11:06:33.000Z,101548
2019-04-19T11:07:33.000Z,101541
2019-04-19T11:09:33.000Z,101545
2019-04-19T11:11:34.000Z,101545
2019-04-19T11:13:18.000Z,101530
2019-04-19T11:14:33.000Z,101539
2019-04-19T11:15:33.000Z,101535
2019-04-19T11:17:34.000Z,101540
2019-04-19T11:19:32.000Z,101529
2019-04-19T11:21:18.000Z,101526
2019-04-19T11:22:34.000Z,101533
2019-04-19T11:23:34.000Z,101537
2019-04-19T11:24:34.000Z,101543
2019-04-19T11:26:33.000Z,101537
2019-04-19T11:28:33.000Z,101536
2019-04-19T11:29:34.000Z,101538
2019-04-19T11:31:18.000Z,101534
2019-04-19T11:32:18.000Z,101529
2019-04-19T11:33:33.000Z,101527
2019-04-19T11:35:34.000Z,101530
2019-04-19T11:37:18.000Z,101529
2019-04-19T11:38:33.000Z,101529
2019-04-19T11:40:34.000Z,101529
2019-04-19T11:42:18.000Z,101520
2019-04-19T11:43:34.000Z,101527
2019-04-19T11:45:19.000Z,101523
2019-04-19T11:47:34.000Z,101520
2019-04-19T11:49:30.000Z,101526
2019-04-19T11:50:34.000Z,101524
2019-04-19T11:52:18.000Z,101511
2019-04-19T11:53:33.000Z,101515
2019-04-19T11:54:33.000Z,101508
2019-04-19T11:56:33.000Z,101513
2019-04-19T11:58:20.000Z,101509
2019-04-19T12:00:35.000Z,101504
2019-04-19T12:02:18.000Z,101508
2019-04-19T12:03:33.000Z,101505
2019-04-19T12:05:18.000Z,101509
2019-04-19T12:06:33.000Z,101507
2019-04-19T12:08:48.000Z,101500
2019-04-19T12:10:33.000Z,101500
2019-04-19T12:11:35.000Z,101496
2019-04-19T12:13:18.000Z,101497
2019-04-19T12:14:34.000Z,101505
2019-04-19T12:16:19.000Z,101504
2019-04-19T12:17:48.000Z,101502
2019-04-19T12:19:33.000Z,101500
2019-04-19T12:21:18.000Z,101502
2019-04-19T12:22:18.000Z,101501
2019-04-19T12:23:18.000Z,101504
2019-04-19T12:24:33.000Z,101504
2019-04-19T12:26:18.000Z,101503
2019-04-19T12:27:48.000Z,101501
2019-04-19T12:29:18.000Z,101499
2019-04-19T12:30:34.000Z,101498
2019-04-19T12:32:18.000Z,101491
2019-04-19T12:33:34.000Z,101496
2019-04-19T12:35:33.000Z,101495
2019-04-19T12:37:18.000Z,101481
2019-04-19T12:38:35.000Z,101487
2019-04-19T12:40:18.000Z,101496
2019-04-19T12:41:34.000Z,101495
2019-04-19T12:43:20.000Z,101496
2019-04-19T12:44:33.000Z,101490
2019-04-19T12:46:18.000Z,101493
2019-04-19T12:48:34.000Z,101487
2019-04-19T12:50:19.000Z,101494
2019-04-19T12:52:34.000Z,101489
2019-04-19T12:54:33.000Z,101489
2019-04-19T12:55:35.000Z,101494
2019-04-19T12:56:35.000Z,101491
2019-04-19T12:58:19.000Z,101489
2019-04-19T13:00:33.000Z,101483
2019-04-19T13:02:35.000Z,101481
2019-04-19T13:04:48.000Z,101481
2019-04-19T13:06:19.000Z,101485
2019-04-19T13:07:33.000Z,101484
2019-04-19T13:09:34.000Z,101482
2019-04-19T13:11:18.000Z,101469
2019-04-19T13:12:18.000Z,101475
2019-04-19T13:13:48.000Z,101474
2019-04-19T13:15:18.000Z,101459
2019-04-19T13:16:33.000Z,101463
2019-04-19T13:18:33.000Z,101467
2019-04-19T13:20:18.000Z,101473
2019-04-19T13:21:35.000Z,101476
2019-04-19T13:23:20.000Z,101469
2019-04-19T13:24:33.000Z,101465
2019-04-19T13:26:48.000Z,101458
2019-04-19T13:28:18.000Z,101454
2019-04-19T13:30:29.000Z,101451
2019-04-19T13:32:18.000Z,101459
2019-04-19T13:33:33.000Z,101453
2019-04-19T13:35:18.000Z,101452
2019-04-19T13:36:18.000Z,101456
2019-04-19T13:37:34.000Z,101449
2019-04-19T13:39:34.000Z,101446
2019-04-19T13:40:35.000Z,101446
2019-04-19T13:42:34.000Z,101443
2019-04-19T13:44:18.000Z,101451
2019-04-19T13:45:18.000Z,101451
2019-04-19T13:47:33.000Z,101446
2019-04-19T13:49:18.000Z,101448
2019-04-19T13:50:18.000Z,101442
2019-04-19T13:51:33.000Z,101450
2019-04-19T13:53:48.000Z,101453
2019-04-19T13:55:18.000Z,101444
2019-04-19T13:56:48.000Z,101443
2019-04-19T13:58:18.000Z,101440
2019-04-19T13:59:33.000Z,101441
2019-04-19T14:01:33.000Z,101440
2019-04-19T14:03:18.000Z,101444
2019-04-19T14:04:34.000Z,101432
2019-04-19T14:05:35.000Z,101441
2019-04-19T14:06:48.000Z,101440
2019-04-19T14:08:33.000Z,101440
2019-04-19T14:10:18.000Z,101437
2019-04-19T14:11:18.000Z,101434
2019-04-19T14:12:33.000Z,101440
2019-04-19T14:14:33.000Z,101433
2019-04-19T14:15:33.000Z,101437
2019-04-19T14:17:18.000Z,101438
2019-04-19T14:18:33.000Z,101441
2019-04-19T14:20:29.000Z,101444
2019-04-19T14:21:33.000Z,101439
2019-04-19T14:22:33.000Z,101441
2019-04-19T14:24:33.000Z,101427
2019-04-19T14:26:18.000Z,101433
2019-04-19T14:27:33.000Z,101434
2019-04-19T14:28:48.000Z,101442
2019-04-19T14:30:18.000Z,101436
2019-04-19T14:31:33.000Z,101437
2019-04-19T14:33:18.000Z,101443
2019-04-19T14:35:34.000Z,101441
2019-04-19T14:37:18.000Z,101442
2019-04-19T14:38:48.000Z,101435
2019-04-19T14:40:33.000Z,101426
2019-04-19T14:41:34.000Z,101425
2019-04-19T14:43:33.000Z,101435
2019-04-19T14:44:34.000Z,101424
2019-04-19T14:45:34.000Z,101432
2019-04-19T14:47:33.000Z,101425
2019-04-19T14:49:33.000Z,101435
2019-04-19T14:51:18.000Z,101424
2019-04-19T14:52:33.000Z,101430
2019-04-19T14:54:18.000Z,101425
2019-04-19T14:55:33.000Z,101427
2019-04-19T14:57:21.000Z,101421
2019-04-19T14:58:48.000Z,101419
2019-04-19T14:59:48.000Z,101421
2019-04-19T15:01:17.000Z,101422
2019-04-19T15:02:33.000Z,101427
2019-04-19T15:04:33.000Z,101422
2019-04-19T15:05:33.000Z,101420
2019-04-19T15:07:33.000Z,101412
2019-04-19T15:09:18.000Z,101419
2019-04-19T15:10:34.000Z,101420
2019-04-19T15:11:48.000Z,101424
2019-04-19T15:13:18.000Z,101402
2019-04-19T15:14:33.000Z,101419
2019-04-19T15:16:33.000Z,101419
2019-04-19T15:18:18.000Z,101427
2019-04-19T15:19:33.000Z,101424
2019-04-19T15:20:34.000Z,101418
2019-04-19T15:22:17.000Z,101424
2019-04-19T15:23:33.000Z,101419
2019-04-19T15:25:18.000Z,101417
2019-04-19T15:26:33.000Z,101423
2019-04-19T15:28:18.000Z,101411
2019-04-19T15:29:33.000Z,101407
2019-04-19T15:31:33.000Z,101423
2019-04-19T15:33:33.000Z,101421
2019-04-19T15:35:18.000Z,101420
2019-04-19T15:37:34.000Z,101422
2019-04-19T15:39:18.000Z,101418
2019-04-19T15:41:34.000Z,101419
2019-04-19T15:43:17.000Z,101421
2019-04-19T15:44:33.000Z,101422
2019-04-19T15:46:34.000Z,101424
2019-04-19T15:48:18.000Z,101419
2019-04-19T15:49:34.000Z,101426
2019-04-19T15:50:34.000Z,101422
2019-04-19T15:52:19.000Z,101418
2019-04-19T15:54:33.000Z,101416
2019-04-19T15:56:33.000Z,101422
2019-04-19T15:57:33.000Z,101416
2019-04-19T15:59:18.000Z,101416
2019-04-19T16:00:34.000Z,101413
2019-04-19T16:02:18.000Z,101418
2019-04-19T16:03:33.000Z,101414
2019-04-19T16:05:19.000Z,101415
2019-04-19T16:06:33.000Z,101409
2019-04-19T16:08:32.000Z,101414
2019-04-19T16:09:33.000Z,101415
2019-04-19T16:10:34.000Z,101416
2019-04-19T16:12:19.000Z,101431
2019-04-19T16:14:34.000Z,101419
2019-04-19T16:15:34.000Z,101430
2019-04-19T16:17:18.000Z,101421
2019-04-19T16:18:18.000Z,101426
2019-04-19T16:19:33.000Z,101426
2019-04-19T16:21:18.000Z,101419
2019-04-19T16:22:33.000Z,101419
2019-04-19T16:23:33.000Z,101424
2019-04-19T16:25:18.000Z,101416
2019-04-19T16:27:48.000Z,101421
2019-04-19T16:29:18.000Z,101410
2019-04-19T16:30:33.000Z,101426
2019-04-19T16:32:33.000Z,101419
2019-04-19T16:33:34.000Z,101428
2019-04-19T16:34:48.000Z,101421
2019-04-19T16:36:18.000Z,101423
2019-04-19T16:37:33.000Z,101425
2019-04-19T16:39:18.000Z,101423
2019-04-19T16:40:33.000Z,101417
2019-04-19T16:42:33.000Z,101426
2019-04-19T16:43:34.000Z,101429
2019-04-19T16:44:34.000Z,101430
2019-04-19T16:46:18.000Z,101436
2019-04-19T16:47:34.000Z,101429
2019-04-19T16:49:33.000Z,101431
2019-04-19T16:50:33.000Z,101424
2019-04-19T16:52:48.000Z,101420
2019-04-19T16:54:33.000Z,101420
2019-04-19T16:55:48.000Z,101430
2019-04-19T16:57:18.000Z,101429
2019-04-19T16:58:33.000Z,101426
2019-04-19T17:00:33.000Z,101436
2019-04-19T17:01:33.000Z,101433
2019-04-19T17:03:34.000Z,101438
2019-04-19T17:04:34.000Z,101425
2019-04-19T17:06:48.000Z,101431
2019-04-19T17:08:18.000Z,101433
2019-04-19T17:09:33.000Z,101434
2019-04-19T17:11:18.000Z,101433
2019-04-19T17:12:33.000Z,101435
2019-04-19T17:14:18.000Z,101440
2019-04-19T17:16:34.000Z,101438
2019-04-19T17:17:48.000Z,101433
2019-04-19T17:19:18.000Z,101441
2019-04-19T17:20:18.000Z,101438
2019-04-19T17:21:34.000Z,101448
2019-04-19T17:23:18.000Z,101441
2019-04-19T17:24:33.000Z,101447
2019-04-19T17:25:34.000Z,101444
2019-04-19T17:26:35.000Z,101441
2019-04-19T17:28:33.000Z,101426
2019-04-19T17:29:34.000Z,101446
2019-04-19T17:30:35.000Z,101441
2019-04-19T17:32:33.000Z,101438
2019-04-19T17:34:33.000Z,101442
2019-04-19T17:35:33.000Z,101456
2019-04-19T17:37:18.000Z,101448
2019-04-19T17:38:31.000Z,101447
2019-04-19T17:39:33.000Z,101453
2019-04-19T17:41:33.000Z,101446
2019-04-19T17:43:34.000Z,101452
2019-04-19T17:44:34.000Z,101454
2019-04-19T17:45:35.000Z,101449
2019-04-19T17:46:48.000Z,101453
2019-04-19T17:48:33.000Z,101448
2019-04-19T17:49:33.000Z,101449
2019-04-19T17:51:35.000Z,101455
2019-04-19T17:53:33.000Z,101459
2019-04-19T17:55:30.000Z,101455
2019-04-19T17:57:48.000Z,101468
2019-04-19T17:59:18.000Z,101461
2019-04-19T18:00:33.000Z,101458
2019-04-19T18:02:18.000Z,101464
2019-04-19T18:03:18.000Z,101468
2019-04-19T18:04:35.000Z,101472
2019-04-19T18:05:35.000Z,101473
2019-04-19T18:07:34.000Z,101477
2019-04-19T18:09:21.000Z,101472
2019-04-19T18:10:23.000Z,101478
2019-04-19T18:11:24.000Z,101478
2019-04-19T18:13:18.000Z,101479
2019-04-19T18:14:34.000Z,101491
2019-04-19T18:16:33.000Z,101488
2019-04-19T18:18:33.000Z,101488
2019-04-19T18:20:18.000Z,101488
2019-04-19T18:21:19.000Z,101483
2019-04-19T18:22:33.000Z,101490
2019-04-19T18:24:18.000Z,101489
2019-04-19T18:25:35.000Z,101490
2019-04-19T18:27:25.000Z,101494
2019-04-19T18:29:23.000Z,101494
2019-04-19T18:31:18.000Z,101496
2019-04-19T18:32:33.000Z,101497
2019-04-19T18:34:18.000Z,101495
2019-04-19T18:35:18.000Z,101499
2019-04-19T18:36:24.000Z,101501
2019-04-19T18:38:18.000Z,101506
2019-04-19T18:39:33.000Z,101503
2019-04-19T18:41:34.000Z,101509
2019-04-19T18:45:18.000Z,101514
2019-04-19T18:46:33.000Z,101514
2019-04-19T18:47:33.000Z,101510
2019-04-19T18:49:48.000Z,101513
2019-04-19T18:51:18.000Z,101515
2019-04-19T18:52:33.000Z,101517
2019-04-19T18:54:18.000Z,101523
2019-04-19T18:55:29.000Z,101518
2019-04-19T18:57:18.000Z,101520
2019-04-19T18:58:28.000Z,101527
2019-04-19T19:00:33.000Z,101525
2019-04-19T19:02:23.000Z,101521
2019-04-19T19:03:35.000Z,101520
2019-04-19T19:05:18.000Z,101523
2019-04-19T19:06:18.000Z,101524
2019-04-19T19:07:23.000Z,101529
2019-04-19T19:08:27.000Z,101529
2019-04-19T19:10:28.000Z,101527
2019-04-19T19:12:33.000Z,101529
2019-04-19T19:14:18.000Z,101533
2019-04-19T19:16:24.000Z,101537
2019-04-19T19:18:18.000Z,101538
2019-04-19T19:19:27.000Z,101537
2019-04-19T19:21:18.000Z,101537
2019-04-19T19:22:26.000Z,101540
2019-04-19T19:23:33.000Z,101545
2019-04-19T19:25:33.000Z,101548
2019-04-19T19:27:18.000Z,101549
2019-04-19T19:28:21.000Z,101551
2019-04-19T19:29:33.000Z,101549
2019-04-19T19:30:33.000Z,101548
2019-04-19T19:32:18.000Z,101553
2019-04-19T19:33:23.000Z,101551
2019-04-19T19:34:24.000Z,101554
2019-04-19T19:35:33.000Z,101551
2019-04-19T19:37:18.000Z,101553
2019-04-19T19:47:18.000Z,101554
2019-04-19T19:48:18.000Z,101558
2019-04-19T19:49:33.000Z,101554
2019-04-19T19:52:27.000Z,101559
2019-04-19T19:54:33.000Z,101560
2019-04-19T19:56:22.000Z,101560
2019-04-19T19:57:33.000Z,101560
2019-04-19T19:59:18.000Z,101553
2019-04-19T20:00:31.000Z,101557
2019-04-19T20:01:33.000Z,101553
2019-04-19T20:03:18.000Z,101558
2019-04-19T20:04:34.000Z,101556
2019-04-19T20:06:23.000Z,101558
2019-04-19T20:08:17.000Z,101558
2019-04-19T20:09:18.000Z,101558
2019-04-19T20:10:20.000Z,101563
2019-04-19T20:11:26.000Z,101566
2019-04-19T20:13:18.000Z,101562
2019-04-19T20:14:23.000Z,101571
2019-04-19T20:16:18.000Z,101568
2019-04-19T20:17:33.000Z,101568
2019-04-19T20:19:20.000Z,101571
2019-04-19T20:20:26.000Z,101568
2019-04-19T20:22:18.000Z,101567
2019-04-19T20:23:27.000Z,101567
2019-04-19T20:24:33.000Z,101567
2019-04-19T20:26:18.000Z,101572
2019-04-19T20:27:22.000Z,101570
2019-04-19T20:28:25.000Z,101575
2019-04-19T20:29:25.000Z,101570
2019-04-19T20:31:18.000Z,101576
2019-04-19T20:32:22.000Z,101575
2019-04-19T20:34:18.000Z,101580
2019-04-19T20:35:22.000Z,101585
2019-04-19T20:37:23.000Z,101577
2019-04-19T20:38:23.000Z,101578